sensor_id;sensor_type;location;lat;lon;timestamp;P1;durP1;ratioP1;P2;durP2;ratioP2
6358;SDS011;3212;51.460;11.868;2022-11-15T00:00:09;25.47;;;11.97;;
6358;SDS011;3212;51.460;11.868;2022-11-15T00:03:32;21.87;;;11.30;;
6358;SDS011;3212;51.460;11.868;2022-11-15T00:06:54;19.93;;;10.57;;
6358;SDS011;3212;51.460;11.868;2022-11-15T00:10:17;22.40;;;11.03;;
6358;SDS011;3212;51.460;11.868;2022-11-15T00:13:39;21.37;;;10.90;;
6358;SDS011;3212;51.460;11.868;2022-11-15T00:17:02;23.03;;;11.37;;
6358;SDS011;3212;51.460;11.868;2022-11-15T00:20:24;27.33;;;12.60;;
6358;SDS011;3212;51.460;11.868;2022-11-15T00:23:47;27.50;;;13.63;;
6358;SDS011;3212;51.460;11.868;2022-11-15T00:27:09;26.33;;;11.90;;
6358;SDS011;3212;51.460;11.868;2022-11-15T00:30:31;23.40;;;11.40;;
6358;SDS011;3212;51.460;11.868;2022-11-15T00:33:56;21.70;;;10.87;;
6358;SDS011;3212;51.460;11.868;2022-11-15T00:37:18;18.83;;;9.80;;
6358;SDS011;3212;51.460;11.868;2022-11-15T00:40:41;28.67;;;10.43;;
6358;SDS011;3212;51.460;11.868;2022-11-15T00:44:03;24.30;;;11.47;;
6358;SDS011;3212;51.460;11.868;2022-11-15T00:47:25;22.40;;;10.90;;
6358;SDS011;3212;51.460;11.868;2022-11-15T00:50:48;20.02;;;10.65;;
6358;SDS011;3212;51.460;11.868;2022-11-15T00:54:11;18.40;;;9.63;;
6358;SDS011;3212;51.460;11.868;2022-11-15T00:57:34;23.07;;;11.60;;
6358;SDS011;3212;51.460;11.868;2022-11-15T01:01:04;19.97;;;10.60;;
6358;SDS011;3212;51.460;11.868;2022-11-15T01:04:19;21.77;;;10.63;;
6358;SDS011;3212;51.460;11.868;2022-11-15T01:07:42;21.83;;;10.60;;
6358;SDS011;3212;51.460;11.868;2022-11-15T01:11:05;17.20;;;9.57;;
6358;SDS011;3212;51.460;11.868;2022-11-15T01:14:27;20.40;;;10.50;;
6358;SDS011;3212;51.460;11.868;2022-11-15T01:17:49;18.80;;;10.03;;
6358;SDS011;3212;51.460;11.868;2022-11-15T01:21:13;21.33;;;10.43;;
6358;SDS011;3212;51.460;11.868;2022-11-15T01:24:36;19.07;;;10.07;;
6358;SDS011;3212;51.460;11.868;2022-11-15T01:27:59;20.40;;;10.37;;
6358;SDS011;3212;51.460;11.868;2022-11-15T01:31:22;21.67;;;10.23;;
6358;SDS011;3212;51.460;11.868;2022-11-15T01:34:44;19.03;;;10.43;;
6358;SDS011;3212;51.460;11.868;2022-11-15T01:38:08;19.87;;;10.53;;
6358;SDS011;3212;51.460;11.868;2022-11-15T01:41:31;22.67;;;11.50;;
6358;SDS011;3212;51.460;11.868;2022-11-15T01:44:53;27.40;;;12.73;;
6358;SDS011;3212;51.460;11.868;2022-11-15T01:48:15;24.80;;;12.33;;
6358;SDS011;3212;51.460;11.868;2022-11-15T01:51:38;24.10;;;11.83;;
6358;SDS011;3212;51.460;11.868;2022-11-15T01:55:04;24.90;;;12.13;;
6358;SDS011;3212;51.460;11.868;2022-11-15T01:58:31;22.70;;;12.00;;
6358;SDS011;3212;51.460;11.868;2022-11-15T02:01:54;27.17;;;13.17;;
6358;SDS011;3212;51.460;11.868;2022-11-15T02:05:18;25.40;;;12.27;;
6358;SDS011;3212;51.460;11.868;2022-11-15T02:08:43;31.10;;;12.93;;
6358;SDS011;3212;51.460;11.868;2022-11-15T02:12:05;25.10;;;12.67;;
6358;SDS011;3212;51.460;11.868;2022-11-15T02:15:30;29.00;;;12.83;;
6358;SDS011;3212;51.460;11.868;2022-11-15T02:18:54;29.30;;;12.70;;
6358;SDS011;3212;51.460;11.868;2022-11-15T02:25:50;24.33;;;10.83;;
6358;SDS011;3212;51.460;11.868;2022-11-15T02:29:18;21.98;;;11.10;;
6358;SDS011;3212;51.460;11.868;2022-11-15T02:32:44;21.60;;;10.20;;
6358;SDS011;3212;51.460;11.868;2022-11-15T02:36:09;19.70;;;10.73;;
6358;SDS011;3212;51.460;11.868;2022-11-15T02:39:35;20.47;;;10.57;;
6358;SDS011;3212;51.460;11.868;2022-11-15T02:43:03;21.13;;;10.73;;
6358;SDS011;3212;51.460;11.868;2022-11-15T02:46:33;21.50;;;10.90;;
6358;SDS011;3212;51.460;11.868;2022-11-15T02:50:03;18.83;;;10.30;;
6358;SDS011;3212;51.460;11.868;2022-11-15T02:53:25;20.50;;;10.57;;
6358;SDS011;3212;51.460;11.868;2022-11-15T02:56:47;19.53;;;10.00;;
6358;SDS011;3212;51.460;11.868;2022-11-15T03:00:14;21.73;;;11.17;;
6358;SDS011;3212;51.460;11.868;2022-11-15T03:03:41;24.77;;;10.60;;
6358;SDS011;3212;51.460;11.868;2022-11-15T03:07:03;20.60;;;10.27;;
6358;SDS011;3212;51.460;11.868;2022-11-15T03:10:36;18.87;;;10.03;;
6358;SDS011;3212;51.460;11.868;2022-11-15T03:17:26;18.43;;;9.70;;
6358;SDS011;3212;51.460;11.868;2022-11-15T03:20:48;16.80;;;8.50;;
6358;SDS011;3212;51.460;11.868;2022-11-15T03:24:10;17.47;;;9.77;;
6358;SDS011;3212;51.460;11.868;2022-11-15T03:27:35;17.20;;;8.80;;
6358;SDS011;3212;51.460;11.868;2022-11-15T03:30:56;12.17;;;7.47;;
6358;SDS011;3212;51.460;11.868;2022-11-15T03:34:21;17.17;;;8.30;;
6358;SDS011;3212;51.460;11.868;2022-11-15T03:37:50;14.77;;;9.10;;
6358;SDS011;3212;51.460;11.868;2022-11-15T03:41:16;21.00;;;9.63;;
6358;SDS011;3212;51.460;11.868;2022-11-15T03:44:44;15.63;;;7.97;;
6358;SDS011;3212;51.460;11.868;2022-11-15T03:48:07;18.97;;;9.67;;
6358;SDS011;3212;51.460;11.868;2022-11-15T03:51:43;16.33;;;8.60;;
6358;SDS011;3212;51.460;11.868;2022-11-15T03:55:06;19.20;;;10.07;;
6358;SDS011;3212;51.460;11.868;2022-11-15T03:58:29;15.67;;;9.37;;
6358;SDS011;3212;51.460;11.868;2022-11-15T04:01:51;24.37;;;11.20;;
6358;SDS011;3212;51.460;11.868;2022-11-15T04:05:14;21.97;;;10.20;;
6358;SDS011;3212;51.460;11.868;2022-11-15T04:08:37;16.13;;;8.80;;
6358;SDS011;3212;51.460;11.868;2022-11-15T04:11:59;17.73;;;9.07;;
6358;SDS011;3212;51.460;11.868;2022-11-15T04:15:23;14.57;;;8.57;;
6358;SDS011;3212;51.460;11.868;2022-11-15T04:18:45;15.30;;;8.50;;
6358;SDS011;3212;51.460;11.868;2022-11-15T04:22:08;13.30;;;7.40;;
6358;SDS011;3212;51.460;11.868;2022-11-15T04:25:36;16.58;;;8.48;;
6358;SDS011;3212;51.460;11.868;2022-11-15T04:28:59;14.90;;;7.97;;
6358;SDS011;3212;51.460;11.868;2022-11-15T04:32:28;15.50;;;7.57;;
6358;SDS011;3212;51.460;11.868;2022-11-15T04:35:50;15.00;;;7.63;;
6358;SDS011;3212;51.460;11.868;2022-11-15T04:39:18;15.50;;;8.20;;
6358;SDS011;3212;51.460;11.868;2022-11-15T04:42:42;14.33;;;7.87;;
6358;SDS011;3212;51.460;11.868;2022-11-15T04:46:04;13.70;;;8.27;;
6358;SDS011;3212;51.460;11.868;2022-11-15T04:49:27;14.97;;;8.20;;
6358;SDS011;3212;51.460;11.868;2022-11-15T04:52:50;15.20;;;7.23;;
6358;SDS011;3212;51.460;11.868;2022-11-15T04:56:12;15.32;;;7.85;;
6358;SDS011;3212;51.460;11.868;2022-11-15T04:59:35;15.83;;;7.70;;
6358;SDS011;3212;51.460;11.868;2022-11-15T05:02:57;11.97;;;7.50;;
6358;SDS011;3212;51.460;11.868;2022-11-15T05:06:25;13.97;;;7.20;;
6358;SDS011;3212;51.460;11.868;2022-11-15T05:09:48;12.77;;;6.63;;
6358;SDS011;3212;51.460;11.868;2022-11-15T05:13:11;11.53;;;6.50;;
6358;SDS011;3212;51.460;11.868;2022-11-15T05:16:33;13.50;;;7.00;;
6358;SDS011;3212;51.460;11.868;2022-11-15T05:19:56;14.65;;;7.50;;
6358;SDS011;3212;51.460;11.868;2022-11-15T05:23:18;12.20;;;7.50;;
6358;SDS011;3212;51.460;11.868;2022-11-15T05:26:41;12.23;;;7.25;;
6358;SDS011;3212;51.460;11.868;2022-11-15T05:30:03;16.20;;;7.97;;
6358;SDS011;3212;51.460;11.868;2022-11-15T05:33:26;11.97;;;7.07;;
6358;SDS011;3212;51.460;11.868;2022-11-15T05:36:48;11.33;;;6.70;;
6358;SDS011;3212;51.460;11.868;2022-11-15T05:40:11;11.40;;;6.80;;
6358;SDS011;3212;51.460;11.868;2022-11-15T05:43:34;12.10;;;6.27;;
6358;SDS011;3212;51.460;11.868;2022-11-15T05:46:56;13.30;;;7.50;;
6358;SDS011;3212;51.460;11.868;2022-11-15T05:50:19;14.10;;;7.23;;
6358;SDS011;3212;51.460;11.868;2022-11-15T05:53:43;12.43;;;6.87;;
6358;SDS011;3212;51.460;11.868;2022-11-15T05:57:05;12.50;;;6.60;;
6358;SDS011;3212;51.460;11.868;2022-11-15T06:00:28;16.77;;;8.30;;
6358;SDS011;3212;51.460;11.868;2022-11-15T06:03:50;14.60;;;7.47;;
6358;SDS011;3212;51.460;11.868;2022-11-15T06:07:13;15.53;;;7.87;;
6358;SDS011;3212;51.460;11.868;2022-11-15T06:10:35;10.70;;;6.83;;
6358;SDS011;3212;51.460;11.868;2022-11-15T06:13:58;14.43;;;8.17;;
6358;SDS011;3212;51.460;11.868;2022-11-15T06:17:21;14.60;;;8.17;;
6358;SDS011;3212;51.460;11.868;2022-11-15T06:20:43;13.17;;;6.93;;
6358;SDS011;3212;51.460;11.868;2022-11-15T06:24:06;14.17;;;8.03;;
6358;SDS011;3212;51.460;11.868;2022-11-15T06:27:28;12.10;;;7.70;;
6358;SDS011;3212;51.460;11.868;2022-11-15T06:30:51;15.98;;;7.37;;
6358;SDS011;3212;51.460;11.868;2022-11-15T06:34:14;16.77;;;7.53;;
6358;SDS011;3212;51.460;11.868;2022-11-15T06:37:37;15.80;;;8.37;;
6358;SDS011;3212;51.460;11.868;2022-11-15T06:41:02;15.80;;;7.40;;
6358;SDS011;3212;51.460;11.868;2022-11-15T06:44:24;13.10;;;7.50;;
6358;SDS011;3212;51.460;11.868;2022-11-15T06:47:47;13.90;;;7.40;;
6358;SDS011;3212;51.460;11.868;2022-11-15T06:51:10;14.80;;;7.50;;
6358;SDS011;3212;51.460;11.868;2022-11-15T06:54:32;18.07;;;7.70;;
6358;SDS011;3212;51.460;11.868;2022-11-15T06:57:57;13.17;;;7.77;;
6358;SDS011;3212;51.460;11.868;2022-11-15T07:01:19;14.43;;;7.40;;
6358;SDS011;3212;51.460;11.868;2022-11-15T07:04:42;13.47;;;7.00;;
6358;SDS011;3212;51.460;11.868;2022-11-15T07:08:05;12.23;;;6.73;;
6358;SDS011;3212;51.460;11.868;2022-11-15T07:11:28;13.63;;;7.20;;
6358;SDS011;3212;51.460;11.868;2022-11-15T07:14:52;12.70;;;7.87;;
6358;SDS011;3212;51.460;11.868;2022-11-15T07:18:14;12.93;;;7.17;;
6358;SDS011;3212;51.460;11.868;2022-11-15T07:21:37;13.10;;;7.03;;
6358;SDS011;3212;51.460;11.868;2022-11-15T07:24:59;15.20;;;7.73;;
6358;SDS011;3212;51.460;11.868;2022-11-15T07:28:22;12.90;;;6.80;;
6358;SDS011;3212;51.460;11.868;2022-11-15T07:31:44;15.47;;;7.57;;
6358;SDS011;3212;51.460;11.868;2022-11-15T07:35:06;12.90;;;7.40;;
6358;SDS011;3212;51.460;11.868;2022-11-15T07:38:29;14.27;;;7.03;;
6358;SDS011;3212;51.460;11.868;2022-11-15T07:41:51;17.83;;;8.13;;
6358;SDS011;3212;51.460;11.868;2022-11-15T07:45:14;18.03;;;8.57;;
6358;SDS011;3212;51.460;11.868;2022-11-15T07:48:37;16.50;;;8.23;;
6358;SDS011;3212;51.460;11.868;2022-11-15T07:51:59;17.53;;;8.40;;
6358;SDS011;3212;51.460;11.868;2022-11-15T07:55:22;14.13;;;7.87;;
6358;SDS011;3212;51.460;11.868;2022-11-15T07:58:45;13.82;;;7.62;;
6358;SDS011;3212;51.460;11.868;2022-11-15T08:02:08;14.80;;;8.40;;
6358;SDS011;3212;51.460;11.868;2022-11-15T08:05:30;16.40;;;8.03;;
6358;SDS011;3212;51.460;11.868;2022-11-15T08:08:53;12.60;;;7.27;;
6358;SDS011;3212;51.460;11.868;2022-11-15T08:12:15;14.13;;;7.80;;
6358;SDS011;3212;51.460;11.868;2022-11-15T08:15:38;11.77;;;7.53;;
6358;SDS011;3212;51.460;11.868;2022-11-15T08:19:01;16.67;;;7.93;;
6358;SDS011;3212;51.460;11.868;2022-11-15T08:22:23;13.00;;;7.60;;
6358;SDS011;3212;51.460;11.868;2022-11-15T08:25:46;13.97;;;8.23;;
6358;SDS011;3212;51.460;11.868;2022-11-15T08:29:08;18.23;;;10.87;;
6358;SDS011;3212;51.460;11.868;2022-11-15T08:32:31;26.30;;;12.03;;
6358;SDS011;3212;51.460;11.868;2022-11-15T08:35:55;14.40;;;8.70;;
6358;SDS011;3212;51.460;11.868;2022-11-15T08:39:16;13.77;;;7.70;;
6358;SDS011;3212;51.460;11.868;2022-11-15T08:42:39;13.68;;;7.78;;
6358;SDS011;3212;51.460;11.868;2022-11-15T08:46:02;14.00;;;7.70;;
6358;SDS011;3212;51.460;11.868;2022-11-15T08:49:24;14.70;;;7.90;;
6358;SDS011;3212;51.460;11.868;2022-11-15T08:52:47;12.30;;;7.20;;
6358;SDS011;3212;51.460;11.868;2022-11-15T08:56:10;14.23;;;7.13;;
6358;SDS011;3212;51.460;11.868;2022-11-15T08:59:32;17.93;;;7.80;;
6358;SDS011;3212;51.460;11.868;2022-11-15T09:02:55;11.23;;;7.33;;
6358;SDS011;3212;51.460;11.868;2022-11-15T09:06:17;18.50;;;7.00;;
6358;SDS011;3212;51.460;11.868;2022-11-15T09:09:40;12.27;;;7.37;;
6358;SDS011;3212;51.460;11.868;2022-11-15T09:13:02;12.07;;;7.37;;
6358;SDS011;3212;51.460;11.868;2022-11-15T09:16:25;11.90;;;7.40;;
6358;SDS011;3212;51.460;11.868;2022-11-15T09:19:48;16.67;;;8.03;;
6358;SDS011;3212;51.460;11.868;2022-11-15T09:23:10;12.77;;;7.40;;
6358;SDS011;3212;51.460;11.868;2022-11-15T09:26:34;14.48;;;7.78;;
6358;SDS011;3212;51.460;11.868;2022-11-15T09:29:56;11.30;;;6.83;;
6358;SDS011;3212;51.460;11.868;2022-11-15T09:33:19;11.50;;;7.47;;
6358;SDS011;3212;51.460;11.868;2022-11-15T09:36:42;11.20;;;6.83;;
6358;SDS011;3212;51.460;11.868;2022-11-15T09:40:05;8.90;;;5.83;;
6358;SDS011;3212;51.460;11.868;2022-11-15T09:43:32;10.80;;;7.10;;
6358;SDS011;3212;51.460;11.868;2022-11-15T09:46:57;9.50;;;6.23;;
6358;SDS011;3212;51.460;11.868;2022-11-15T09:50:36;9.50;;;6.13;;
6358;SDS011;3212;51.460;11.868;2022-11-15T09:58:08;11.57;;;6.10;;
6358;SDS011;3212;51.460;11.868;2022-11-15T10:05:11;9.93;;;6.47;;
6358;SDS011;3212;51.460;11.868;2022-11-15T10:12:08;11.15;;;6.90;;
6358;SDS011;3212;51.460;11.868;2022-11-15T10:15:31;15.83;;;7.07;;
6358;SDS011;3212;51.460;11.868;2022-11-15T10:18:59;10.13;;;6.47;;
6358;SDS011;3212;51.460;11.868;2022-11-15T10:22:26;10.43;;;6.60;;
6358;SDS011;3212;51.460;11.868;2022-11-15T10:25:53;13.80;;;7.10;;
6358;SDS011;3212;51.460;11.868;2022-11-15T10:29:19;11.67;;;6.30;;
6358;SDS011;3212;51.460;11.868;2022-11-15T10:32:43;10.07;;;6.13;;
6358;SDS011;3212;51.460;11.868;2022-11-15T10:36:16;11.40;;;7.00;;
6358;SDS011;3212;51.460;11.868;2022-11-15T10:39:40;12.33;;;7.10;;
6358;SDS011;3212;51.460;11.868;2022-11-15T10:43:13;9.93;;;6.37;;
6358;SDS011;3212;51.460;11.868;2022-11-15T10:46:35;14.67;;;7.93;;
6358;SDS011;3212;51.460;11.868;2022-11-15T10:49:59;14.23;;;7.40;;
6358;SDS011;3212;51.460;11.868;2022-11-15T10:53:22;9.70;;;7.63;;
6358;SDS011;3212;51.460;11.868;2022-11-15T10:56:47;15.13;;;7.20;;
6358;SDS011;3212;51.460;11.868;2022-11-15T11:00:13;9.87;;;6.60;;
6358;SDS011;3212;51.460;11.868;2022-11-15T11:03:46;15.60;;;6.20;;
6358;SDS011;3212;51.460;11.868;2022-11-15T11:07:08;11.17;;;6.53;;
6358;SDS011;3212;51.460;11.868;2022-11-15T11:10:30;9.43;;;6.27;;
6358;SDS011;3212;51.460;11.868;2022-11-15T11:13:52;8.33;;;6.17;;
6358;SDS011;3212;51.460;11.868;2022-11-15T11:17:16;10.17;;;6.47;;
6358;SDS011;3212;51.460;11.868;2022-11-15T11:20:41;9.70;;;6.60;;
6358;SDS011;3212;51.460;11.868;2022-11-15T11:24:06;8.60;;;5.73;;
6358;SDS011;3212;51.460;11.868;2022-11-15T11:27:36;8.20;;;5.30;;
6358;SDS011;3212;51.460;11.868;2022-11-15T11:31:02;7.50;;;5.30;;
6358;SDS011;3212;51.460;11.868;2022-11-15T11:34:37;12.13;;;5.40;;
6358;SDS011;3212;51.460;11.868;2022-11-15T11:41:41;7.80;;;5.10;;
6358;SDS011;3212;51.460;11.868;2022-11-15T11:45:05;7.10;;;4.17;;
6358;SDS011;3212;51.460;11.868;2022-11-15T11:48:37;6.13;;;4.40;;
6358;SDS011;3212;51.460;11.868;2022-11-15T11:52:00;10.57;;;4.90;;
6358;SDS011;3212;51.460;11.868;2022-11-15T11:55:27;5.27;;;4.07;;
6358;SDS011;3212;51.460;11.868;2022-11-15T11:58:48;8.90;;;4.40;;
6358;SDS011;3212;51.460;11.868;2022-11-15T12:02:12;5.80;;;4.03;;
6358;SDS011;3212;51.460;11.868;2022-11-15T12:05:40;6.83;;;3.67;;
6358;SDS011;3212;51.460;11.868;2022-11-15T12:12:45;5.27;;;4.27;;
6358;SDS011;3212;51.460;11.868;2022-11-15T12:16:11;7.37;;;4.10;;
6358;SDS011;3212;51.460;11.868;2022-11-15T12:19:31;5.80;;;3.83;;
6358;SDS011;3212;51.460;11.868;2022-11-15T12:22:56;6.30;;;3.43;;
6358;SDS011;3212;51.460;11.868;2022-11-15T12:26:20;8.65;;;4.00;;
6358;SDS011;3212;51.460;11.868;2022-11-15T12:29:45;4.70;;;3.73;;
6358;SDS011;3212;51.460;11.868;2022-11-15T12:33:16;6.40;;;4.17;;
6358;SDS011;3212;51.460;11.868;2022-11-15T12:36:30;9.20;;;4.10;;
6358;SDS011;3212;51.460;11.868;2022-11-15T12:47:00;4.50;;;3.53;;
6358;SDS011;3212;51.460;11.868;2022-11-15T12:53:57;3.97;;;2.70;;
6358;SDS011;3212;51.460;11.868;2022-11-15T13:00:57;3.67;;;2.83;;
6358;SDS011;3212;51.460;11.868;2022-11-15T13:07:56;4.77;;;3.03;;
6358;SDS011;3212;51.460;11.868;2022-11-15T13:14:52;3.73;;;2.70;;
6358;SDS011;3212;51.460;11.868;2022-11-15T13:21:56;4.30;;;2.90;;
6358;SDS011;3212;51.460;11.868;2022-11-15T13:29:15;8.50;;;3.20;;
6358;SDS011;3212;51.460;11.868;2022-11-15T13:32:37;4.57;;;2.73;;
6358;SDS011;3212;51.460;11.868;2022-11-15T13:36:02;5.63;;;3.37;;
6358;SDS011;3212;51.460;11.868;2022-11-15T13:39:25;7.53;;;3.20;;
6358;SDS011;3212;51.460;11.868;2022-11-15T13:42:49;6.37;;;3.60;;
6358;SDS011;3212;51.460;11.868;2022-11-15T13:46:17;5.30;;;3.00;;
6358;SDS011;3212;51.460;11.868;2022-11-15T13:49:43;3.60;;;2.90;;
6358;SDS011;3212;51.460;11.868;2022-11-15T13:53:05;3.87;;;2.70;;
6358;SDS011;3212;51.460;11.868;2022-11-15T13:56:28;6.18;;;2.83;;
6358;SDS011;3212;51.460;11.868;2022-11-15T13:59:51;4.80;;;2.87;;
6358;SDS011;3212;51.460;11.868;2022-11-15T14:06:56;4.57;;;2.90;;
6358;SDS011;3212;51.460;11.868;2022-11-15T14:10:29;6.20;;;3.10;;
6358;SDS011;3212;51.460;11.868;2022-11-15T14:13:59;4.00;;;3.07;;
6358;SDS011;3212;51.460;11.868;2022-11-15T14:17:35;5.00;;;3.10;;
6358;SDS011;3212;51.460;11.868;2022-11-15T14:24:30;5.27;;;2.97;;
6358;SDS011;3212;51.460;11.868;2022-11-15T14:31:38;5.30;;;3.60;;
6358;SDS011;3212;51.460;11.868;2022-11-15T14:35:01;5.60;;;3.57;;
6358;SDS011;3212;51.460;11.868;2022-11-15T14:38:25;3.80;;;3.20;;
6358;SDS011;3212;51.460;11.868;2022-11-15T14:41:47;6.87;;;3.47;;
6358;SDS011;3212;51.460;11.868;2022-11-15T14:45:12;4.50;;;3.23;;
6358;SDS011;3212;51.460;11.868;2022-11-15T14:48:34;6.40;;;3.03;;
6358;SDS011;3212;51.460;11.868;2022-11-15T14:51:56;6.60;;;3.53;;
6358;SDS011;3212;51.460;11.868;2022-11-15T14:55:22;7.47;;;3.97;;
6358;SDS011;3212;51.460;11.868;2022-11-15T14:58:43;12.17;;;4.47;;
6358;SDS011;3212;51.460;11.868;2022-11-15T15:02:11;9.77;;;4.10;;
6358;SDS011;3212;51.460;11.868;2022-11-15T15:05:33;7.27;;;3.90;;
6358;SDS011;3212;51.460;11.868;2022-11-15T15:08:55;8.27;;;3.67;;
6358;SDS011;3212;51.460;11.868;2022-11-15T15:12:18;9.23;;;4.10;;
6358;SDS011;3212;51.460;11.868;2022-11-15T15:15:40;13.00;;;3.37;;
6358;SDS011;3212;51.460;11.868;2022-11-15T15:19:09;7.23;;;3.40;;
6358;SDS011;3212;51.460;11.868;2022-11-15T15:22:32;8.67;;;3.60;;
6358;SDS011;3212;51.460;11.868;2022-11-15T15:25:55;6.43;;;3.50;;
6358;SDS011;3212;51.460;11.868;2022-11-15T15:29:17;5.80;;;3.30;;
6358;SDS011;3212;51.460;11.868;2022-11-15T15:32:41;6.60;;;3.63;;
6358;SDS011;3212;51.460;11.868;2022-11-15T15:36:04;9.93;;;5.20;;
6358;SDS011;3212;51.460;11.868;2022-11-15T15:39:27;8.25;;;5.10;;
6358;SDS011;3212;51.460;11.868;2022-11-15T15:42:50;11.98;;;5.05;;
6358;SDS011;3212;51.460;11.868;2022-11-15T15:46:14;8.43;;;4.30;;
6358;SDS011;3212;51.460;11.868;2022-11-15T15:49:37;8.43;;;4.85;;
6358;SDS011;3212;51.460;11.868;2022-11-15T15:53:00;7.90;;;5.40;;
6358;SDS011;3212;51.460;11.868;2022-11-15T15:56:21;8.37;;;5.17;;
6358;SDS011;3212;51.460;11.868;2022-11-15T15:59:45;9.90;;;5.00;;
6358;SDS011;3212;51.460;11.868;2022-11-15T16:03:15;9.90;;;6.13;;
6358;SDS011;3212;51.460;11.868;2022-11-15T16:06:38;11.82;;;6.40;;
6358;SDS011;3212;51.460;11.868;2022-11-15T16:09:59;15.40;;;7.80;;
6358;SDS011;3212;51.460;11.868;2022-11-15T16:13:23;15.77;;;8.07;;
6358;SDS011;3212;51.460;11.868;2022-11-15T16:16:46;14.77;;;8.88;;
6358;SDS011;3212;51.460;11.868;2022-11-15T16:23:59;17.53;;;9.27;;
6358;SDS011;3212;51.460;11.868;2022-11-15T16:27:22;14.63;;;9.00;;
6358;SDS011;3212;51.460;11.868;2022-11-15T16:30:45;15.27;;;8.87;;
6358;SDS011;3212;51.460;11.868;2022-11-15T16:34:07;15.27;;;8.40;;
6358;SDS011;3212;51.460;11.868;2022-11-15T16:37:30;18.30;;;8.57;;
6358;SDS011;3212;51.460;11.868;2022-11-15T16:40:53;16.13;;;9.50;;
6358;SDS011;3212;51.460;11.868;2022-11-15T16:44:16;16.10;;;9.87;;
6358;SDS011;3212;51.460;11.868;2022-11-15T16:47:39;14.50;;;9.20;;
6358;SDS011;3212;51.460;11.868;2022-11-15T16:51:01;14.00;;;9.07;;
6358;SDS011;3212;51.460;11.868;2022-11-15T16:54:24;13.40;;;8.90;;
6358;SDS011;3212;51.460;11.868;2022-11-15T16:57:46;15.97;;;8.70;;
6358;SDS011;3212;51.460;11.868;2022-11-15T17:01:14;16.37;;;9.47;;
6358;SDS011;3212;51.460;11.868;2022-11-15T17:04:32;16.47;;;9.53;;
6358;SDS011;3212;51.460;11.868;2022-11-15T17:07:55;14.80;;;8.93;;
6358;SDS011;3212;51.460;11.868;2022-11-15T17:11:18;25.93;;;10.90;;
6358;SDS011;3212;51.460;11.868;2022-11-15T17:14:39;17.13;;;10.10;;
6358;SDS011;3212;51.460;11.868;2022-11-15T17:18:02;20.00;;;10.50;;
6358;SDS011;3212;51.460;11.868;2022-11-15T17:21:24;18.00;;;10.40;;
6358;SDS011;3212;51.460;11.868;2022-11-15T17:24:48;16.73;;;9.50;;
6358;SDS011;3212;51.460;11.868;2022-11-15T17:28:11;20.70;;;10.07;;
6358;SDS011;3212;51.460;11.868;2022-11-15T17:31:33;17.13;;;10.33;;
6358;SDS011;3212;51.460;11.868;2022-11-15T17:34:56;22.90;;;11.07;;
6358;SDS011;3212;51.460;11.868;2022-11-15T17:38:19;17.53;;;9.60;;
6358;SDS011;3212;51.460;11.868;2022-11-15T17:41:43;18.20;;;9.67;;
6358;SDS011;3212;51.460;11.868;2022-11-15T17:45:05;14.70;;;8.90;;
6358;SDS011;3212;51.460;11.868;2022-11-15T17:48:29;15.53;;;9.00;;
6358;SDS011;3212;51.460;11.868;2022-11-15T17:51:51;17.23;;;10.20;;
6358;SDS011;3212;51.460;11.868;2022-11-15T17:55:14;18.20;;;9.83;;
6358;SDS011;3212;51.460;11.868;2022-11-15T17:58:38;14.20;;;8.97;;
6358;SDS011;3212;51.460;11.868;2022-11-15T18:02:01;14.60;;;8.87;;
6358;SDS011;3212;51.460;11.868;2022-11-15T18:05:24;14.63;;;9.13;;
6358;SDS011;3212;51.460;11.868;2022-11-15T18:08:48;16.40;;;9.43;;
6358;SDS011;3212;51.460;11.868;2022-11-15T18:12:10;19.30;;;9.30;;
6358;SDS011;3212;51.460;11.868;2022-11-15T18:15:32;15.30;;;9.67;;
6358;SDS011;3212;51.460;11.868;2022-11-15T18:18:54;18.70;;;9.40;;
6358;SDS011;3212;51.460;11.868;2022-11-15T18:22:17;19.43;;;10.90;;
6358;SDS011;3212;51.460;11.868;2022-11-15T18:25:40;15.57;;;10.13;;
6358;SDS011;3212;51.460;11.868;2022-11-15T18:29:03;16.60;;;9.87;;
6358;SDS011;3212;51.460;11.868;2022-11-15T18:32:25;21.20;;;11.17;;
6358;SDS011;3212;51.460;11.868;2022-11-15T18:35:48;17.30;;;11.40;;
6358;SDS011;3212;51.460;11.868;2022-11-15T18:39:10;19.47;;;10.37;;
6358;SDS011;3212;51.460;11.868;2022-11-15T18:42:33;15.77;;;10.38;;
6358;SDS011;3212;51.460;11.868;2022-11-15T18:46:04;25.07;;;10.23;;
6358;SDS011;3212;51.460;11.868;2022-11-15T18:49:27;16.70;;;10.33;;
6358;SDS011;3212;51.460;11.868;2022-11-15T18:52:50;21.67;;;9.83;;
6358;SDS011;3212;51.460;11.868;2022-11-15T18:56:14;20.03;;;10.87;;
6358;SDS011;3212;51.460;11.868;2022-11-15T18:59:35;16.67;;;10.40;;
6358;SDS011;3212;51.460;11.868;2022-11-15T19:02:58;18.50;;;9.33;;
6358;SDS011;3212;51.460;11.868;2022-11-15T19:06:23;15.97;;;9.30;;
6358;SDS011;3212;51.460;11.868;2022-11-15T19:09:44;17.40;;;9.80;;
6358;SDS011;3212;51.460;11.868;2022-11-15T19:13:08;21.73;;;11.30;;
6358;SDS011;3212;51.460;11.868;2022-11-15T19:16:31;23.17;;;12.73;;
6358;SDS011;3212;51.460;11.868;2022-11-15T19:19:53;18.90;;;10.63;;
6358;SDS011;3212;51.460;11.868;2022-11-15T19:23:16;17.40;;;10.23;;
6358;SDS011;3212;51.460;11.868;2022-11-15T19:26:38;19.30;;;10.30;;
6358;SDS011;3212;51.460;11.868;2022-11-15T19:30:00;17.57;;;10.77;;
6358;SDS011;3212;51.460;11.868;2022-11-15T19:36:52;16.53;;;9.60;;
6358;SDS011;3212;51.460;11.868;2022-11-15T19:40:15;17.60;;;9.80;;
6358;SDS011;3212;51.460;11.868;2022-11-15T19:43:38;17.30;;;9.27;;
6358;SDS011;3212;51.460;11.868;2022-11-15T19:47:00;17.35;;;10.85;;
6358;SDS011;3212;51.460;11.868;2022-11-15T19:50:23;19.97;;;10.60;;
6358;SDS011;3212;51.460;11.868;2022-11-15T19:53:47;17.80;;;9.73;;
6358;SDS011;3212;51.460;11.868;2022-11-15T19:57:09;17.77;;;9.97;;
6358;SDS011;3212;51.460;11.868;2022-11-15T20:00:33;18.83;;;11.03;;
6358;SDS011;3212;51.460;11.868;2022-11-15T20:03:57;16.17;;;9.90;;
6358;SDS011;3212;51.460;11.868;2022-11-15T20:07:20;15.67;;;9.53;;
6358;SDS011;3212;51.460;11.868;2022-11-15T20:10:42;17.03;;;9.70;;
6358;SDS011;3212;51.460;11.868;2022-11-15T20:14:05;21.77;;;11.30;;
6358;SDS011;3212;51.460;11.868;2022-11-15T20:17:27;15.30;;;9.73;;
6358;SDS011;3212;51.460;11.868;2022-11-15T20:20:50;17.13;;;9.20;;
6358;SDS011;3212;51.460;11.868;2022-11-15T20:24:13;14.77;;;9.45;;
6358;SDS011;3212;51.460;11.868;2022-11-15T20:27:35;17.20;;;9.67;;
6358;SDS011;3212;51.460;11.868;2022-11-15T20:30:58;18.50;;;10.10;;
6358;SDS011;3212;51.460;11.868;2022-11-15T20:34:20;21.23;;;12.43;;
6358;SDS011;3212;51.460;11.868;2022-11-15T20:37:43;26.70;;;14.30;;
6358;SDS011;3212;51.460;11.868;2022-11-15T20:41:06;19.73;;;11.80;;
6358;SDS011;3212;51.460;11.868;2022-11-15T20:44:29;23.70;;;11.77;;
6358;SDS011;3212;51.460;11.868;2022-11-15T20:47:53;17.23;;;9.50;;
6358;SDS011;3212;51.460;11.868;2022-11-15T20:51:16;19.10;;;10.80;;
6358;SDS011;3212;51.460;11.868;2022-11-15T20:54:38;23.83;;;9.93;;
6358;SDS011;3212;51.460;11.868;2022-11-15T20:58:01;16.73;;;9.97;;
6358;SDS011;3212;51.460;11.868;2022-11-15T21:01:24;18.03;;;9.70;;
6358;SDS011;3212;51.460;11.868;2022-11-15T21:04:46;19.50;;;9.50;;
6358;SDS011;3212;51.460;11.868;2022-11-15T21:08:10;17.27;;;9.60;;
6358;SDS011;3212;51.460;11.868;2022-11-15T21:11:32;16.60;;;9.93;;
6358;SDS011;3212;51.460;11.868;2022-11-15T21:15:00;19.50;;;9.77;;
6358;SDS011;3212;51.460;11.868;2022-11-15T21:18:22;21.37;;;9.90;;
6358;SDS011;3212;51.460;11.868;2022-11-15T21:21:45;15.57;;;9.30;;
6358;SDS011;3212;51.460;11.868;2022-11-15T21:25:07;19.30;;;9.63;;
6358;SDS011;3212;51.460;11.868;2022-11-15T21:28:30;15.73;;;9.87;;
6358;SDS011;3212;51.460;11.868;2022-11-15T21:31:53;21.07;;;11.27;;
6358;SDS011;3212;51.460;11.868;2022-11-15T21:35:15;24.03;;;12.90;;
6358;SDS011;3212;51.460;11.868;2022-11-15T21:38:39;20.73;;;12.03;;